sensor_id;sensor_type;location;lat;lon;timestamp;P1;durP1;ratioP1;P2;durP2;ratioP2
42840;SDS011;28491;46.898;7.660;2022-09-09T00:01:32;2.10;;;1.20;;
42840;SDS011;28491;46.898;7.660;2022-09-09T00:09:47;4.68;;;2.83;;
42840;SDS011;28491;46.898;7.660;2022-09-09T00:20:28;4.05;;;1.05;;
42840;SDS011;28491;46.898;7.660;2022-09-09T00:23:03;1.95;;;1.25;;
42840;SDS011;28491;46.898;7.660;2022-09-09T00:28:22;3.78;;;1.70;;
42840;SDS011;28491;46.898;7.660;2022-09-09T00:30:50;3.58;;;1.35;;
42840;SDS011;28491;46.898;7.660;2022-09-09T00:33:17;3.60;;;1.17;;
42840;SDS011;28491;46.898;7.660;2022-09-09T00:35:48;3.83;;;1.15;;
42840;SDS011;28491;46.898;7.660;2022-09-09T00:38:42;4.35;;;1.45;;
42840;SDS011;28491;46.898;7.660;2022-09-09T00:41:19;5.47;;;2.65;;
42840;SDS011;28491;46.898;7.660;2022-09-09T00:43:55;2.13;;;1.30;;
42840;SDS011;28491;46.898;7.660;2022-09-09T00:46:33;3.35;;;1.10;;
42840;SDS011;28491;46.898;7.660;2022-09-09T00:49:20;7.07;;;1.15;;
42840;SDS011;28491;46.898;7.660;2022-09-09T00:52:11;2.95;;;1.05;;
42840;SDS011;28491;46.898;7.660;2022-09-09T00:57:34;6.80;;;1.52;;
42840;SDS011;28491;46.898;7.660;2022-09-09T01:02:51;4.07;;;1.63;;
42840;SDS011;28491;46.898;7.660;2022-09-09T01:05:48;2.60;;;1.30;;
42840;SDS011;28491;46.898;7.660;2022-09-09T01:11:00;2.35;;;1.40;;
42840;SDS011;28491;46.898;7.660;2022-09-09T01:13:30;5.20;;;1.38;;
42840;SDS011;28491;46.898;7.660;2022-09-09T01:15:59;4.22;;;1.45;;
42840;SDS011;28491;46.898;7.660;2022-09-09T01:18:32;4.25;;;1.35;;
42840;SDS011;28491;46.898;7.660;2022-09-09T01:26:10;2.03;;;1.30;;
42840;SDS011;28491;46.898;7.660;2022-09-09T01:28:41;3.72;;;1.33;;
42840;SDS011;28491;46.898;7.660;2022-09-09T01:31:15;2.17;;;1.27;;
42840;SDS011;28491;46.898;7.660;2022-09-09T01:33:44;2.75;;;1.27;;
42840;SDS011;28491;46.898;7.660;2022-09-09T01:36:15;6.13;;;1.40;;
42840;SDS011;28491;46.898;7.660;2022-09-09T01:38:46;5.70;;;1.50;;
42840;SDS011;28491;46.898;7.660;2022-09-09T01:41:12;6.80;;;1.65;;
42840;SDS011;28491;46.898;7.660;2022-09-09T01:43:37;3.30;;;1.83;;
42840;SDS011;28491;46.898;7.660;2022-09-09T01:46:03;2.20;;;1.30;;
42840;SDS011;28491;46.898;7.660;2022-09-09T01:48:29;4.75;;;1.20;;
42840;SDS011;28491;46.898;7.660;2022-09-09T01:50:55;5.50;;;1.95;;
42840;SDS011;28491;46.898;7.660;2022-09-09T01:53:21;3.72;;;1.20;;
42840;SDS011;28491;46.898;7.660;2022-09-09T02:03:57;3.08;;;1.05;;
42840;SDS011;28491;46.898;7.660;2022-09-09T02:06:38;1.98;;;1.15;;
42840;SDS011;28491;46.898;7.660;2022-09-09T02:09:05;4.28;;;1.42;;
42840;SDS011;28491;46.898;7.660;2022-09-09T02:11:34;1.90;;;1.20;;
42840;SDS011;28491;46.898;7.660;2022-09-09T02:14:01;1.80;;;1.10;;
42840;SDS011;28491;46.898;7.660;2022-09-09T02:21:52;5.07;;;1.38;;
42840;SDS011;28491;46.898;7.660;2022-09-09T02:24:22;2.83;;;1.40;;
42840;SDS011;28491;46.898;7.660;2022-09-09T02:26:49;3.30;;;1.25;;
42840;SDS011;28491;46.898;7.660;2022-09-09T02:29:21;5.35;;;2.00;;
42840;SDS011;28491;46.898;7.660;2022-09-09T02:31:50;1.95;;;1.30;;
42840;SDS011;28491;46.898;7.660;2022-09-09T02:34:18;1.92;;;1.35;;
42840;SDS011;28491;46.898;7.660;2022-09-09T02:36:49;3.47;;;1.30;;
42840;SDS011;28491;46.898;7.660;2022-09-09T02:39:18;2.25;;;1.40;;
42840;SDS011;28491;46.898;7.660;2022-09-09T02:41:44;3.53;;;1.30;;
42840;SDS011;28491;46.898;7.660;2022-09-09T02:44:16;4.00;;;1.45;;
42840;SDS011;28491;46.898;7.660;2022-09-09T02:52:00;4.15;;;1.70;;
42840;SDS011;28491;46.898;7.660;2022-09-09T02:54:37;5.72;;;1.70;;
42840;SDS011;28491;46.898;7.660;2022-09-09T02:59:33;2.75;;;1.50;;
42840;SDS011;28491;46.898;7.660;2022-09-09T03:01:59;1.92;;;1.48;;
42840;SDS011;28491;46.898;7.660;2022-09-09T03:04:26;5.95;;;1.45;;
42840;SDS011;28491;46.898;7.660;2022-09-09T03:06:51;3.60;;;2.00;;
42840;SDS011;28491;46.898;7.660;2022-09-09T03:09:17;4.53;;;1.92;;
42840;SDS011;28491;46.898;7.660;2022-09-09T03:11:43;4.57;;;1.58;;
42840;SDS011;28491;46.898;7.660;2022-09-09T03:14:08;5.10;;;1.90;;
42840;SDS011;28491;46.898;7.660;2022-09-09T03:16:36;3.78;;;2.17;;
42840;SDS011;28491;46.898;7.660;2022-09-09T03:19:02;3.83;;;1.63;;
42840;SDS011;28491;46.898;7.660;2022-09-09T03:21:27;5.07;;;1.88;;
42840;SDS011;28491;46.898;7.660;2022-09-09T03:23:53;4.03;;;1.88;;
42840;SDS011;28491;46.898;7.660;2022-09-09T03:26:19;7.80;;;1.73;;
42840;SDS011;28491;46.898;7.660;2022-09-09T03:28:45;3.42;;;1.80;;
42840;SDS011;28491;46.898;7.660;2022-09-09T03:31:10;3.58;;;1.63;;
42840;SDS011;28491;46.898;7.660;2022-09-09T03:33:37;3.78;;;2.17;;
42840;SDS011;28491;46.898;7.660;2022-09-09T03:36:03;3.28;;;1.98;;
42840;SDS011;28491;46.898;7.660;2022-09-09T03:38:29;6.70;;;1.77;;
42840;SDS011;28491;46.898;7.660;2022-09-09T03:40:55;4.65;;;2.50;;
42840;SDS011;28491;46.898;7.660;2022-09-09T03:43:22;6.63;;;2.45;;
42840;SDS011;28491;46.898;7.660;2022-09-09T03:45:48;3.13;;;2.20;;
42840;SDS011;28491;46.898;7.660;2022-09-09T03:48:14;2.90;;;2.08;;
42840;SDS011;28491;46.898;7.660;2022-09-09T03:50:48;4.03;;;2.40;;
42840;SDS011;28491;46.898;7.660;2022-09-09T03:53:15;4.28;;;2.08;;
42840;SDS011;28491;46.898;7.660;2022-09-09T03:55:49;4.18;;;2.40;;
42840;SDS011;28491;46.898;7.660;2022-09-09T03:58:19;4.05;;;1.90;;
42840;SDS011;28491;46.898;7.660;2022-09-09T04:03:38;4.97;;;1.88;;
42840;SDS011;28491;46.898;7.660;2022-09-09T04:06:05;4.68;;;2.17;;
42840;SDS011;28491;46.898;7.660;2022-09-09T04:08:32;4.13;;;2.17;;
42840;SDS011;28491;46.898;7.660;2022-09-09T04:10:59;4.10;;;1.80;;
42840;SDS011;28491;46.898;7.660;2022-09-09T04:13:30;4.55;;;2.17;;
42840;SDS011;28491;46.898;7.660;2022-09-09T04:15:57;4.82;;;2.10;;
42840;SDS011;28491;46.898;7.660;2022-09-09T04:18:24;6.55;;;4.43;;
42840;SDS011;28491;46.898;7.660;2022-09-09T04:20:51;3.85;;;2.90;;
42840;SDS011;28491;46.898;7.660;2022-09-09T04:23:18;2.95;;;1.90;;
42840;SDS011;28491;46.898;7.660;2022-09-09T04:25:46;5.25;;;2.50;;
42840;SDS011;28491;46.898;7.660;2022-09-09T04:28:13;3.72;;;1.95;;
42840;SDS011;28491;46.898;7.660;2022-09-09T04:30:39;2.42;;;1.73;;
42840;SDS011;28491;46.898;7.660;2022-09-09T04:33:05;4.13;;;2.50;;
42840;SDS011;28491;46.898;7.660;2022-09-09T04:35:31;4.72;;;2.17;;
42840;SDS011;28491;46.898;7.660;2022-09-09T04:37:57;4.63;;;1.88;;
42840;SDS011;28491;46.898;7.660;2022-09-09T04:40:22;4.13;;;2.53;;
42840;SDS011;28491;46.898;7.660;2022-09-09T04:42:48;8.57;;;3.22;;
42840;SDS011;28491;46.898;7.660;2022-09-09T04:45:15;3.95;;;2.10;;
42840;SDS011;28491;46.898;7.660;2022-09-09T04:47:40;4.45;;;2.10;;
42840;SDS011;28491;46.898;7.660;2022-09-09T04:50:07;5.80;;;2.00;;
42840;SDS011;28491;46.898;7.660;2022-09-09T04:52:36;3.70;;;2.08;;
42840;SDS011;28491;46.898;7.660;2022-09-09T04:55:02;3.75;;;2.20;;
42840;SDS011;28491;46.898;7.660;2022-09-09T04:57:29;4.28;;;2.30;;
42840;SDS011;28491;46.898;7.660;2022-09-09T04:59:56;2.10;;;1.60;;
42840;SDS011;28491;46.898;7.660;2022-09-09T05:02:22;6.80;;;2.00;;
42840;SDS011;28491;46.898;7.660;2022-09-09T05:04:48;2.80;;;1.90;;
42840;SDS011;28491;46.898;7.660;2022-09-09T05:07:14;4.53;;;1.77;;
42840;SDS011;28491;46.898;7.660;2022-09-09T05:09:40;6.53;;;3.08;;
42840;SDS011;28491;46.898;7.660;2022-09-09T05:12:06;3.22;;;1.77;;
42840;SDS011;28491;46.898;7.660;2022-09-09T05:14:32;3.80;;;2.13;;
42840;SDS011;28491;46.898;7.660;2022-09-09T05:16:57;7.43;;;3.35;;
42840;SDS011;28491;46.898;7.660;2022-09-09T05:19:23;4.75;;;1.95;;
42840;SDS011;28491;46.898;7.660;2022-09-09T05:21:49;5.03;;;2.15;;
42840;SDS011;28491;46.898;7.660;2022-09-09T05:24:15;4.50;;;2.10;;
42840;SDS011;28491;46.898;7.660;2022-09-09T05:26:41;4.55;;;2.08;;
42840;SDS011;28491;46.898;7.660;2022-09-09T05:29:08;6.25;;;2.90;;
42840;SDS011;28491;46.898;7.660;2022-09-09T05:31:34;3.50;;;1.80;;
42840;SDS011;28491;46.898;7.660;2022-09-09T05:33:59;6.85;;;3.92;;
42840;SDS011;28491;46.898;7.660;2022-09-09T05:36:25;4.65;;;3.00;;
42840;SDS011;28491;46.898;7.660;2022-09-09T05:38:50;4.28;;;2.40;;
42840;SDS011;28491;46.898;7.660;2022-09-09T05:41:18;5.53;;;2.10;;
42840;SDS011;28491;46.898;7.660;2022-09-09T05:43:45;4.55;;;2.90;;
42840;SDS011;28491;46.898;7.660;2022-09-09T05:46:22;4.57;;;2.00;;
42840;SDS011;28491;46.898;7.660;2022-09-09T05:48:50;6.78;;;2.13;;
42840;SDS011;28491;46.898;7.660;2022-09-09T05:51:23;5.13;;;1.85;;
42840;SDS011;28491;46.898;7.660;2022-09-09T05:53:51;3.70;;;2.03;;
42840;SDS011;28491;46.898;7.660;2022-09-09T05:56:18;2.72;;;1.90;;
42840;SDS011;28491;46.898;7.660;2022-09-09T05:58:45;2.38;;;1.50;;
42840;SDS011;28491;46.898;7.660;2022-09-09T06:03:44;3.65;;;1.50;;
42840;SDS011;28491;46.898;7.660;2022-09-09T06:06:15;3.25;;;1.40;;
42840;SDS011;28491;46.898;7.660;2022-09-09T06:08:46;2.83;;;1.30;;
42840;SDS011;28491;46.898;7.660;2022-09-09T06:11:16;2.08;;;1.27;;
42840;SDS011;28491;46.898;7.660;2022-09-09T06:13:43;4.45;;;1.15;;
42840;SDS011;28491;46.898;7.660;2022-09-09T06:16:13;4.80;;;1.20;;
42840;SDS011;28491;46.898;7.660;2022-09-09T06:18:39;2.20;;;1.08;;
42840;SDS011;28491;46.898;7.660;2022-09-09T06:21:07;3.05;;;1.02;;
42840;SDS011;28491;46.898;7.660;2022-09-09T06:23:36;5.40;;;1.45;;
42840;SDS011;28491;46.898;7.660;2022-09-09T06:26:05;3.72;;;1.40;;
42840;SDS011;28491;46.898;7.660;2022-09-09T06:28:32;4.07;;;1.45;;
42840;SDS011;28491;46.898;7.660;2022-09-09T06:30:58;4.13;;;1.30;;
42840;SDS011;28491;46.898;7.660;2022-09-09T06:33:25;1.65;;;1.00;;
42840;SDS011;28491;46.898;7.660;2022-09-09T06:35:51;2.35;;;1.20;;
42840;SDS011;28491;46.898;7.660;2022-09-09T06:38:18;2.70;;;0.98;;
42840;SDS011;28491;46.898;7.660;2022-09-09T06:40:50;3.05;;;1.40;;
42840;SDS011;28491;46.898;7.660;2022-09-09T06:43:23;3.35;;;1.30;;
42840;SDS011;28491;46.898;7.660;2022-09-09T06:45:52;5.68;;;1.40;;
42840;SDS011;28491;46.898;7.660;2022-09-09T06:48:26;2.67;;;1.33;;
42840;SDS011;28491;46.898;7.660;2022-09-09T06:53:27;4.05;;;1.50;;
42840;SDS011;28491;46.898;7.660;2022-09-09T06:55:53;2.42;;;1.35;;
42840;SDS011;28491;46.898;7.660;2022-09-09T06:58:19;3.72;;;1.60;;
42840;SDS011;28491;46.898;7.660;2022-09-09T07:00:47;3.55;;;1.40;;
42840;SDS011;28491;46.898;7.660;2022-09-09T07:03:12;3.47;;;1.23;;
42840;SDS011;28491;46.898;7.660;2022-09-09T07:05:38;5.47;;;1.88;;
42840;SDS011;28491;46.898;7.660;2022-09-09T07:08:04;7.22;;;1.65;;
42840;SDS011;28491;46.898;7.660;2022-09-09T07:10:30;3.72;;;1.40;;
42840;SDS011;28491;46.898;7.660;2022-09-09T07:12:56;3.28;;;1.25;;
42840;SDS011;28491;46.898;7.660;2022-09-09T07:15:22;4.97;;;1.10;;
42840;SDS011;28491;46.898;7.660;2022-09-09T07:17:48;3.10;;;1.15;;
42840;SDS011;28491;46.898;7.660;2022-09-09T07:20:14;2.35;;;0.93;;
42840;SDS011;28491;46.898;7.660;2022-09-09T07:22:40;3.15;;;1.02;;
42840;SDS011;28491;46.898;7.660;2022-09-09T07:25:06;2.72;;;1.27;;
42840;SDS011;28491;46.898;7.660;2022-09-09T07:27:32;5.10;;;1.23;;
42840;SDS011;28491;46.898;7.660;2022-09-09T07:29:58;4.05;;;1.38;;
42840;SDS011;28491;46.898;7.660;2022-09-09T07:32:24;2.80;;;1.20;;
42840;SDS011;28491;46.898;7.660;2022-09-09T07:34:50;2.22;;;1.30;;
42840;SDS011;28491;46.898;7.660;2022-09-09T07:37:16;6.80;;;1.20;;
42840;SDS011;28491;46.898;7.660;2022-09-09T07:39:42;5.70;;;1.92;;
42840;SDS011;28491;46.898;7.660;2022-09-09T07:42:08;2.13;;;1.08;;
42840;SDS011;28491;46.898;7.660;2022-09-09T07:44:36;1.77;;;0.90;;
42840;SDS011;28491;46.898;7.660;2022-09-09T07:47:04;2.53;;;0.95;;
42840;SDS011;28491;46.898;7.660;2022-09-09T07:49:30;2.58;;;0.88;;
42840;SDS011;28491;46.898;7.660;2022-09-09T07:51:56;1.17;;;0.77;;
42840;SDS011;28491;46.898;7.660;2022-09-09T07:54:22;2.50;;;1.05;;
42840;SDS011;28491;46.898;7.660;2022-09-09T07:56:48;0.65;;;0.65;;
42840;SDS011;28491;46.898;7.660;2022-09-09T07:59:15;2.47;;;1.25;;
42840;SDS011;28491;46.898;7.660;2022-09-09T08:01:45;4.05;;;1.63;;
42840;SDS011;28491;46.898;7.660;2022-09-09T08:04:13;3.83;;;1.00;;
42840;SDS011;28491;46.898;7.660;2022-09-09T08:06:43;3.42;;;1.42;;
42840;SDS011;28491;46.898;7.660;2022-09-09T08:09:11;1.50;;;0.90;;
42840;SDS011;28491;46.898;7.660;2022-09-09T08:11:37;2.20;;;0.95;;
42840;SDS011;28491;46.898;7.660;2022-09-09T08:14:03;1.77;;;0.80;;
42840;SDS011;28491;46.898;7.660;2022-09-09T08:16:30;1.77;;;1.25;;
42840;SDS011;28491;46.898;7.660;2022-09-09T08:18:58;4.18;;;1.45;;
42840;SDS011;28491;46.898;7.660;2022-09-09T08:21:25;3.55;;;1.30;;
42840;SDS011;28491;46.898;7.660;2022-09-09T08:23:55;4.22;;;1.23;;
42840;SDS011;28491;46.898;7.660;2022-09-09T08:26:26;5.38;;;2.70;;
42840;SDS011;28491;46.898;7.660;2022-09-09T08:28:54;5.53;;;2.30;;
42840;SDS011;28491;46.898;7.660;2022-09-09T08:31:26;2.15;;;1.58;;
42840;SDS011;28491;46.898;7.660;2022-09-09T08:33:54;3.47;;;1.70;;
42840;SDS011;28491;46.898;7.660;2022-09-09T08:36:21;5.32;;;1.77;;
42840;SDS011;28491;46.898;7.660;2022-09-09T08:38:48;2.85;;;1.95;;
42840;SDS011;28491;46.898;7.660;2022-09-09T08:43:51;4.97;;;1.63;;
42840;SDS011;28491;46.898;7.660;2022-09-09T08:46:31;2.58;;;1.45;;
42840;SDS011;28491;46.898;7.660;2022-09-09T08:49:01;3.30;;;1.48;;
42840;SDS011;28491;46.898;7.660;2022-09-09T08:51:51;1.83;;;1.25;;
42840;SDS011;28491;46.898;7.660;2022-09-09T08:54:20;3.00;;;1.92;;
42840;SDS011;28491;46.898;7.660;2022-09-09T08:56:46;2.53;;;1.77;;
42840;SDS011;28491;46.898;7.660;2022-09-09T08:59:13;3.10;;;1.52;;
42840;SDS011;28491;46.898;7.660;2022-09-09T09:05:06;2.83;;;1.15;;
42840;SDS011;28491;46.898;7.660;2022-09-09T09:07:44;1.73;;;0.68;;
42840;SDS011;28491;46.898;7.660;2022-09-09T09:13:38;2.40;;;0.80;;
42840;SDS011;28491;46.898;7.660;2022-09-09T09:16:13;3.58;;;0.95;;
42840;SDS011;28491;46.898;7.660;2022-09-09T09:18:53;1.35;;;0.70;;
42840;SDS011;28491;46.898;7.660;2022-09-09T09:21:34;1.10;;;0.70;;
42840;SDS011;28491;46.898;7.660;2022-09-09T09:24:17;2.60;;;0.90;;
42840;SDS011;28491;46.898;7.660;2022-09-09T09:26:43;2.40;;;1.00;;
42840;SDS011;28491;46.898;7.660;2022-09-09T09:29:10;2.35;;;1.05;;
42840;SDS011;28491;46.898;7.660;2022-09-09T09:31:53;3.42;;;0.88;;
42840;SDS011;28491;46.898;7.660;2022-09-09T09:34:22;2.35;;;0.77;;
42840;SDS011;28491;46.898;7.660;2022-09-09T09:36:58;2.25;;;1.05;;
42840;SDS011;28491;46.898;7.660;2022-09-09T09:39:30;3.50;;;0.93;;
42840;SDS011;28491;46.898;7.660;2022-09-09T09:42:11;4.70;;;1.30;;
42840;SDS011;28491;46.898;7.660;2022-09-09T09:44:39;1.87;;;1.00;;
42840;SDS011;28491;46.898;7.660;2022-09-09T09:47:06;1.70;;;0.88;;
42840;SDS011;28491;46.898;7.660;2022-09-09T09:49:33;3.58;;;1.10;;
42840;SDS011;28491;46.898;7.660;2022-09-09T09:52:00;4.00;;;1.55;;
42840;SDS011;28491;46.898;7.660;2022-09-09T09:54:33;4.35;;;0.98;;
42840;SDS011;28491;46.898;7.660;2022-09-09T09:57:10;3.20;;;1.27;;
42840;SDS011;28491;46.898;7.660;2022-09-09T09:59:38;1.90;;;0.70;;
42840;SDS011;28491;46.898;7.660;2022-09-09T10:02:15;1.60;;;0.60;;
42840;SDS011;28491;46.898;7.660;2022-09-09T10:04:45;2.72;;;1.02;;
42840;SDS011;28491;46.898;7.660;2022-09-09T10:07:18;1.98;;;0.75;;
42840;SDS011;28491;46.898;7.660;2022-09-09T10:09:46;3.15;;;1.13;;
42840;SDS011;28491;46.898;7.660;2022-09-09T10:26:38;3.55;;;1.83;;
42840;SDS011;28491;46.898;7.660;2022-09-09T10:29:43;4.43;;;1.00;;
42840;SDS011;28491;46.898;7.660;2022-09-09T10:32:37;3.40;;;1.27;;
42840;SDS011;28491;46.898;7.660;2022-09-09T10:48:45;2.90;;;0.98;;
42840;SDS011;28491;46.898;7.660;2022-09-09T10:51:48;2.10;;;1.17;;
42840;SDS011;28491;46.898;7.660;2022-09-09T10:57:08;2.78;;;1.00;;
42840;SDS011;28491;46.898;7.660;2022-09-09T11:00:17;1.60;;;0.88;;
42840;SDS011;28491;46.898;7.660;2022-09-09T11:02:47;1.98;;;1.13;;
42840;SDS011;28491;46.898;7.660;2022-09-09T11:07:56;1.30;;;1.20;;
42840;SDS011;28491;46.898;7.660;2022-09-09T11:13:04;3.47;;;1.15;;
42840;SDS011;28491;46.898;7.660;2022-09-09T11:15:45;5.10;;;1.15;;
42840;SDS011;28491;46.898;7.660;2022-09-09T11:18:19;2.33;;;1.08;;
42840;SDS011;28491;46.898;7.660;2022-09-09T11:20:48;1.27;;;0.80;;
42840;SDS011;28491;46.898;7.660;2022-09-09T11:23:22;3.67;;;1.50;;
42840;SDS011;28491;46.898;7.660;2022-09-09T11:25:59;4.00;;;1.05;;
42840;SDS011;28491;46.898;7.660;2022-09-09T11:28:53;3.25;;;0.85;;
42840;SDS011;28491;46.898;7.660;2022-09-09T11:31:39;3.50;;;1.25;;
42840;SDS011;28491;46.898;7.660;2022-09-09T11:34:27;4.60;;;1.50;;
42840;SDS011;28491;46.898;7.660;2022-09-09T11:40:28;2.58;;;1.58;;
42840;SDS011;28491;46.898;7.660;2022-09-09T11:43:03;3.10;;;0.80;;
42840;SDS011;28491;46.898;7.660;2022-09-09T11:45:51;3.47;;;0.98;;
42840;SDS011;28491;46.898;7.660;2022-09-09T11:48:22;1.50;;;0.73;;
42840;SDS011;28491;46.898;7.660;2022-09-09T11:51:06;3.80;;;1.05;;
42840;SDS011;28491;46.898;7.660;2022-09-09T11:53:34;1.75;;;0.98;;
42840;SDS011;28491;46.898;7.660;2022-09-09T11:56:12;5.83;;;1.20;;
42840;SDS011;28491;46.898;7.660;2022-09-09T12:01:42;1.60;;;0.90;;
42840;SDS011;28491;46.898;7.660;2022-09-09T12:04:14;4.47;;;1.50;;
42840;SDS011;28491;46.898;7.660;2022-09-09T12:06:53;3.20;;;0.80;;
42840;SDS011;28491;46.898;7.660;2022-09-09T12:09:22;1.40;;;0.73;;
42840;SDS011;28491;46.898;7.660;2022-09-09T12:12:05;3.88;;;0.90;;
42840;SDS011;28491;46.898;7.660;2022-09-09T12:17:19;5.80;;;1.10;;
42840;SDS011;28491;46.898;7.660;2022-09-09T12:19:47;2.30;;;1.60;;
42840;SDS011;28491;46.898;7.660;2022-09-09T12:22:16;2.88;;;1.02;;
42840;SDS011;28491;46.898;7.660;2022-09-09T12:27:45;3.35;;;0.77;;
42840;SDS011;28491;46.898;7.660;2022-09-09T12:30:34;4.78;;;1.38;;
42840;SDS011;28491;46.898;7.660;2022-09-09T12:33:22;1.33;;;0.80;;
42840;SDS011;28491;46.898;7.660;2022-09-09T12:35:58;2.83;;;1.10;;
42840;SDS011;28491;46.898;7.660;2022-09-09T12:40:59;1.65;;;0.68;;
42840;SDS011;28491;46.898;7.660;2022-09-09T12:43:26;2.28;;;0.70;;
42840;SDS011;28491;46.898;7.660;2022-09-09T12:46:07;1.73;;;0.63;;
42840;SDS011;28491;46.898;7.660;2022-09-09T12:48:44;4.05;;;0.80;;
42840;SDS011;28491;46.898;7.660;2022-09-09T12:51:18;3.28;;;0.93;;
42840;SDS011;28491;46.898;7.660;2022-09-09T12:53:48;3.33;;;0.70;;
42840;SDS011;28491;46.898;7.660;2022-09-09T12:56:33;3.50;;;0.88;;
42840;SDS011;28491;46.898;7.660;2022-09-09T12:59:00;1.33;;;0.60;;
42840;SDS011;28491;46.898;7.660;2022-09-09T13:01:27;3.28;;;0.47;;
42840;SDS011;28491;46.898;7.660;2022-09-09T13:03:54;1.70;;;0.53;;
42840;SDS011;28491;46.898;7.660;2022-09-09T13:06:22;1.50;;;0.50;;
42840;SDS011;28491;46.898;7.660;2022-09-09T13:11:17;2.90;;;0.80;;
42840;SDS011;28491;46.898;7.660;2022-09-09T13:13:51;2.22;;;0.70;;
42840;SDS011;28491;46.898;7.660;2022-09-09T13:16:20;2.97;;;0.70;;
42840;SDS011;28491;46.898;7.660;2022-09-09T13:18:45;1.85;;;0.80;;
42840;SDS011;28491;46.898;7.660;2022-09-09T13:21:11;1.63;;;0.70;;
42840;SDS011;28491;46.898;7.660;2022-09-09T13:23:38;2.15;;;0.80;;
42840;SDS011;28491;46.898;7.660;2022-09-09T13:26:20;4.57;;;0.80;;
42840;SDS011;28491;46.898;7.660;2022-09-09T13:28:51;1.88;;;0.50;;
42840;SDS011;28491;46.898;7.660;2022-09-09T13:31:27;5.28;;;0.90;;
42840;SDS011;28491;46.898;7.660;2022-09-09T13:33:54;1.52;;;0.70;;
42840;SDS011;28491;46.898;7.660;2022-09-09T13:36:30;2.25;;;0.70;;
42840;SDS011;28491;46.898;7.660;2022-09-09T13:38:59;1.60;;;0.75;;
42840;SDS011;28491;46.898;7.660;2022-09-09T13:43:59;2.28;;;0.70;;
42840;SDS011;28491;46.898;7.660;2022-09-09T13:46:31;1.08;;;0.80;;
42840;SDS011;28491;46.898;7.660;2022-09-09T13:51:43;3.78;;;0.63;;
42840;SDS011;28491;46.898;7.660;2022-09-09T13:54:12;0.73;;;0.40;;
42840;SDS011;28491;46.898;7.660;2022-09-09T13:56:40;1.70;;;0.73;;
42840;SDS011;28491;46.898;7.660;2022-09-09T13:59:17;1.40;;;0.52;;
42840;SDS011;28491;46.898;7.660;2022-09-09T14:01:44;3.90;;;0.68;;
42840;SDS011;28491;46.898;7.660;2022-09-09T14:04:10;1.52;;;0.45;;
42840;SDS011;28491;46.898;7.660;2022-09-09T14:06:36;1.63;;;0.57;;
42840;SDS011;28491;46.898;7.660;2022-09-09T14:09:04;2.65;;;0.70;;
42840;SDS011;28491;46.898;7.660;2022-09-09T14:11:31;1.52;;;0.65;;
42840;SDS011;28491;46.898;7.660;2022-09-09T14:13:57;2.30;;;0.57;;
42840;SDS011;28491;46.898;7.660;2022-09-09T14:16:22;1.75;;;0.75;;
42840;SDS011;28491;46.898;7.660;2022-09-09T14:18:48;1.95;;;0.90;;
42840;SDS011;28491;46.898;7.660;2022-09-09T14:21:13;1.88;;;0.73;;
42840;SDS011;28491;46.898;7.660;2022-09-09T14:23:40;3.05;;;0.70;;
42840;SDS011;28491;46.898;7.660;2022-09-09T14:26:06;3.03;;;0.85;;
42840;SDS011;28491;46.898;7.660;2022-09-09T14:28:32;2.22;;;0.70;;
42840;SDS011;28491;46.898;7.660;2022-09-09T14:30:59;3.90;;;1.80;;
42840;SDS011;28491;46.898;7.660;2022-09-09T14:33:26;1.98;;;1.00;;
42840;SDS011;28491;46.898;7.660;2022-09-09T14:35:57;1.97;;;0.60;;
42840;SDS011;28491;46.898;7.660;2022-09-09T14:38:24;1.50;;;1.00;;
42840;SDS011;28491;46.898;7.660;2022-09-09T14:40:50;3.83;;;1.70;;
42840;SDS011;28491;46.898;7.660;2022-09-09T14:43:17;4.07;;;0.90;;
42840;SDS011;28491;46.898;7.660;2022-09-09T14:45:42;3.22;;;0.90;;
42840;SDS011;28491;46.898;7.660;2022-09-09T14:48:08;3.40;;;0.82;;
42840;SDS011;28491;46.898;7.660;2022-09-09T14:50:34;3.95;;;1.25;;
42840;SDS011;28491;46.898;7.660;2022-09-09T14:53:01;1.92;;;0.90;;
42840;SDS011;28491;46.898;7.660;2022-09-09T14:55:27;1.30;;;0.60;;
42840;SDS011;28491;46.898;7.660;2022-09-09T14:57:54;1.27;;;0.47;;
42840;SDS011;28491;46.898;7.660;2022-09-09T15:00:19;3.15;;;0.80;;
42840;SDS011;28491;46.898;7.660;2022-09-09T15:02:45;3.95;;;0.82;;
42840;SDS011;28491;46.898;7.660;2022-09-09T15:05:10;2.72;;;1.10;;
42840;SDS011;28491;46.898;7.660;2022-09-09T15:07:36;3.65;;;1.00;;
42840;SDS011;28491;46.898;7.660;2022-09-09T15:10:02;3.85;;;1.05;;
42840;SDS011;28491;46.898;7.660;2022-09-09T15:12:28;3.03;;;1.23;;
42840;SDS011;28491;46.898;7.660;2022-09-09T15:14:54;0.82;;;0.70;;
42840;SDS011;28491;46.898;7.660;2022-09-09T15:17:20;2.50;;;0.80;;
42840;SDS011;28491;46.898;7.660;2022-09-09T15:19:46;0.88;;;0.52;;
42840;SDS011;28491;46.898;7.660;2022-09-09T15:22:12;2.80;;;0.70;;
42840;SDS011;28491;46.898;7.660;2022-09-09T15:24:37;3.17;;;0.68;;
42840;SDS011;28491;46.898;7.660;2022-09-09T15:27:03;2.03;;;1.13;;
42840;SDS011;28491;46.898;7.660;2022-09-09T15:29:28;2.65;;;0.60;;
42840;SDS011;28491;46.898;7.660;2022-09-09T15:31:54;2.38;;;0.70;;
42840;SDS011;28491;46.898;7.660;2022-09-09T15:34:20;3.63;;;1.00;;
42840;SDS011;28491;46.898;7.660;2022-09-09T15:36:46;5.97;;;1.45;;
42840;SDS011;28491;46.898;7.660;2022-09-09T15:39:13;2.15;;;0.60;;
42840;SDS011;28491;46.898;7.660;2022-09-09T15:41:44;2.30;;;0.90;;
42840;SDS011;28491;46.898;7.660;2022-09-09T15:44:12;1.42;;;0.63;;
42840;SDS011;28491;46.898;7.660;2022-09-09T15:46:38;3.08;;;0.82;;
42840;SDS011;28491;46.898;7.660;2022-09-09T15:49:17;2.15;;;1.10;;
42840;SDS011;28491;46.898;7.660;2022-09-09T15:51:45;4.30;;;0.80;;
42840;SDS011;28491;46.898;7.660;2022-09-09T15:54:16;2.08;;;0.77;;
42840;SDS011;28491;46.898;7.660;2022-09-09T15:56:43;4.47;;;0.70;;
42840;SDS011;28491;46.898;7.660;2022-09-09T15:59:10;1.13;;;0.55;;
42840;SDS011;28491;46.898;7.660;2022-09-09T16:01:36;4.53;;;0.93;;
42840;SDS011;28491;46.898;7.660;2022-09-09T16:04:04;2.42;;;0.90;;
42840;SDS011;28491;46.898;7.660;2022-09-09T16:06:30;3.33;;;0.80;;
42840;SDS011;28491;46.898;7.660;2022-09-09T16:08:56;2.30;;;1.15;;
42840;SDS011;28491;46.898;7.660;2022-09-09T16:11:24;3.28;;;1.52;;
42840;SDS011;28491;46.898;7.660;2022-09-09T16:13:52;2.70;;;1.10;;
42840;SDS011;28491;46.898;7.660;2022-09-09T16:16:19;4.55;;;0.70;;
42840;SDS011;28491;46.898;7.660;2022-09-09T16:18:48;2.25;;;0.90;;
42840;SDS011;28491;46.898;7.660;2022-09-09T16:21:26;5.40;;;1.65;;
42840;SDS011;28491;46.898;7.660;2022-09-09T16:23:57;2.88;;;0.93;;
42840;SDS011;28491;46.898;7.660;2022-09-09T16:26:24;4.82;;;1.25;;
42840;SDS011;28491;46.898;7.660;2022-09-09T16:28:50;3.50;;;1.00;;
42840;SDS011;28491;46.898;7.660;2022-09-09T16:31:17;3.28;;;1.65;;
42840;SDS011;28491;46.898;7.660;2022-09-09T16:33:44;2.47;;;1.35;;
42840;SDS011;28491;46.898;7.660;2022-09-09T16:36:12;2.83;;;1.00;;
42840;SDS011;28491;46.898;7.660;2022-09-09T16:38:48;4.32;;;1.27;;
42840;SDS011;28491;46.898;7.660;2022-09-09T16:41:16;3.05;;;1.50;;
42840;SDS011;28491;46.898;7.660;2022-09-09T16:43:42;4.20;;;1.58;;
42840;SDS011;28491;46.898;7.660;2022-09-09T16:46:18;2.67;;;1.30;;
42840;SDS011;28491;46.898;7.660;2022-09-09T16:48:45;3.03;;;1.20;;
42840;SDS011;28491;46.898;7.660;2022-09-09T16:51:13;4.40;;;0.98;;
42840;SDS011;28491;46.898;7.660;2022-09-09T16:53:41;3.67;;;1.60;;
42840;SDS011;28491;46.898;7.660;2022-09-09T16:56:08;2.55;;;1.10;;
42840;SDS011;28491;46.898;7.660;2022-09-09T16:58:35;1.98;;;0.98;;
42840;SDS011;28491;46.898;7.660;2022-09-09T17:01:02;2.35;;;0.70;;
42840;SDS011;28491;46.898;7.660;2022-09-09T17:03:28;1.75;;;0.60;;
42840;SDS011;28491;46.898;7.660;2022-09-09T17:05:54;1.52;;;0.60;;
42840;SDS011;28491;46.898;7.660;2022-09-09T17:08:20;2.05;;;0.50;;
42840;SDS011;28491;46.898;7.660;2022-09-09T17:10:45;2.35;;;0.90;;